createdAt,value
2019-02-14T00:04:41.189Z,0.70
2019-02-14T00:09:44.583Z,0.70
2019-02-14T00:14:47.964Z,0.60
2019-02-14T00:19:51.374Z,0.60
2019-02-14T00:24:54.723Z,0.60
2019-02-14T00:29:58.109Z,0.50
2019-02-14T00:35:01.498Z,0.50
2019-02-14T00:40:10.546Z,0.40
2019-02-14T00:45:13.936Z,0.40
2019-02-14T00:50:17.322Z,0.30
2019-02-14T00:55:20.703Z,0.30
2019-02-14T01:00:24.092Z,0.30
2019-02-14T01:05:33.342Z,0.20
2019-02-14T01:10:32.571Z,0.20
2019-02-14T01:15:36.615Z,0.20
2019-02-14T01:20:40.000Z,0.10
2019-02-14T01:25:43.407Z,0.10
2019-02-14T01:30:46.791Z,0.00
2019-02-14T01:35:50.179Z,0.00
2019-02-14T01:40:53.571Z,0.00
2019-02-14T01:45:56.955Z,-0.10
2019-02-14T01:51:00.338Z,-0.10
2019-02-14T01:56:03.730Z,-0.10
2019-02-14T02:01:07.183Z,-0.20
2019-02-14T02:06:10.575Z,-0.20
2019-02-14T02:11:13.961Z,-0.30
2019-02-14T02:16:17.352Z,-0.30
2019-02-14T02:21:20.743Z,-0.30
2019-02-14T02:26:24.140Z,-0.30
2019-02-14T02:31:27.526Z,-0.40
2019-02-14T02:36:30.999Z,-0.40
2019-02-14T02:41:34.389Z,-0.40
2019-02-14T02:46:37.784Z,-0.50
2019-02-14T02:51:41.173Z,-0.50
2019-02-14T02:56:44.546Z,-0.60
2019-02-14T03:01:47.986Z,-0.60
2019-02-14T03:06:51.397Z,-0.60
2019-02-14T03:11:54.788Z,-0.60
2019-02-14T03:16:58.159Z,-0.60
2019-02-14T03:22:01.552Z,-0.70
2019-02-14T03:27:04.928Z,-0.70
2019-02-14T03:32:08.311Z,-0.70
2019-02-14T03:37:11.695Z,-0.70
2019-02-14T03:42:15.082Z,-0.80
2019-02-14T03:47:18.476Z,-0.80
2019-02-14T03:52:21.867Z,-0.80
2019-02-14T03:57:25.255Z,-0.80
2019-02-14T04:02:28.639Z,-0.80
2019-02-14T04:07:32.021Z,-0.90
2019-02-14T04:12:35.472Z,-0.90
2019-02-14T04:17:38.951Z,-0.90
2019-02-14T04:22:42.340Z,-0.90
2019-02-14T04:27:45.719Z,-0.90
2019-02-14T04:32:49.107Z,-1.00
2019-02-14T04:37:52.499Z,-1.00
2019-02-14T04:42:55.881Z,-1.00
2019-02-14T04:47:59.274Z,-1.00
2019-02-14T04:53:02.666Z,-1.00
2019-02-14T04:58:06.060Z,-1.00
2019-02-14T05:03:09.439Z,-1.00
2019-02-14T05:08:12.843Z,-1.00
2019-02-14T05:13:16.235Z,-1.10
2019-02-14T05:18:19.623Z,-1.10
2019-02-14T05:23:23.017Z,-1.10
2019-02-14T05:28:26.411Z,-1.10
2019-02-14T05:33:29.810Z,-1.10
2019-02-14T05:38:33.215Z,-1.10
2019-02-14T05:43:36.632Z,-1.10
2019-02-14T05:48:40.003Z,-1.10
2019-02-14T05:53:43.401Z,-1.10
2019-02-14T05:58:46.787Z,-1.20
2019-02-14T06:03:50.172Z,-1.20
2019-02-14T06:08:53.562Z,-1.20
2019-02-14T06:13:56.939Z,-1.20
2019-02-14T06:19:00.338Z,-1.20
2019-02-14T06:24:03.733Z,-1.20
2019-02-14T06:29:07.119Z,-1.20
2019-02-14T06:34:10.512Z,-1.30
2019-02-14T06:39:13.894Z,-1.30
2019-02-14T06:44:17.300Z,-1.30
2019-02-14T06:49:20.691Z,-1.30
2019-02-14T06:54:24.074Z,-1.30
2019-02-14T06:59:27.455Z,-1.30
2019-02-14T07:04:30.863Z,-1.40
2019-02-14T07:09:34.251Z,-1.40
2019-02-14T07:14:37.671Z,-1.40
2019-02-14T07:19:41.052Z,-1.40
2019-02-14T07:24:44.431Z,-1.30
2019-02-14T07:29:47.822Z,-1.30
2019-02-14T07:34:51.203Z,-1.30
2019-02-14T07:39:54.602Z,-1.30
2019-02-14T07:44:57.991Z,-1.20
2019-02-14T07:50:01.384Z,-1.20
2019-02-14T07:55:07.003Z,-1.10
2019-02-14T08:00:15.986Z,-1.00
2019-02-14T08:05:19.369Z,-0.90
2019-02-14T08:10:22.754Z,-0.80
2019-02-14T08:15:26.135Z,-0.70
2019-02-14T08:20:29.525Z,-0.70
2019-02-14T08:25:32.915Z,-0.60
2019-02-14T08:30:36.313Z,-0.50
2019-02-14T08:35:39.702Z,-0.40
2019-02-14T08:40:43.092Z,-0.30
2019-02-14T08:45:46.484Z,-0.20
2019-02-14T08:50:49.868Z,0.00
2019-02-14T08:55:53.257Z,0.10
2019-02-14T09:00:56.718Z,0.30
2019-02-14T09:06:00.119Z,0.60
2019-02-14T09:11:03.524Z,0.90
2019-02-14T09:16:06.913Z,1.10
2019-02-14T09:21:10.371Z,1.40
2019-02-14T09:26:13.758Z,1.70
2019-02-14T09:31:17.158Z,1.90
2019-02-14T09:36:20.538Z,2.20
2019-02-14T09:41:23.911Z,2.50
2019-02-14T09:46:27.371Z,2.80
2019-02-14T09:51:30.752Z,3.10
2019-02-14T09:56:34.127Z,3.50
2019-02-14T10:01:37.514Z,3.90
2019-02-14T10:06:40.887Z,4.30
2019-02-14T10:11:44.292Z,4.60
2019-02-14T10:16:47.658Z,4.90
2019-02-14T10:21:51.043Z,5.20
2019-02-14T10:26:54.431Z,5.30
2019-02-14T10:31:57.824Z,5.40
2019-02-14T10:37:01.208Z,5.60
2019-02-14T10:42:04.618Z,5.80
2019-02-14T10:47:07.988Z,6.10
2019-02-14T11:04:17.645Z,6.80
2019-02-14T11:09:21.028Z,7.20
2019-02-14T11:14:29.130Z,7.50
2019-02-14T11:19:29.519Z,7.80
2019-02-14T11:24:32.908Z,8.10
2019-02-14T11:29:36.296Z,8.40
2019-02-14T11:34:39.683Z,8.70
2019-02-14T11:39:43.050Z,8.90
2019-02-14T11:44:46.452Z,9.10
2019-02-14T11:49:49.836Z,9.40
2019-02-14T11:54:53.223Z,9.50
2019-02-14T11:59:56.603Z,9.60
2019-02-14T12:05:00.005Z,9.80
2019-02-14T12:10:12.920Z,9.90
2019-02-14T12:15:10.608Z,10.00
2019-02-14T12:20:15.331Z,10.10
2019-02-14T12:25:29.794Z,10.30
2019-02-14T12:30:33.198Z,10.40
2019-02-14T12:35:36.581Z,10.50
2019-02-14T12:40:40.153Z,10.70
2019-02-14T12:45:44.409Z,10.90
2019-02-14T12:50:47.795Z,11.00
2019-02-14T12:55:51.183Z,10.90
2019-02-14T13:00:54.584Z,10.90
2019-02-14T13:05:57.959Z,11.10
2019-02-14T13:11:01.355Z,11.30
2019-02-14T13:16:04.841Z,11.30
2019-02-14T13:21:08.227Z,11.50
2019-02-14T13:26:11.620Z,11.50
2019-02-14T13:31:15.024Z,11.50
2019-02-14T14:00:17.920Z,11.60
2019-02-14T14:05:21.299Z,11.70
2019-02-14T14:10:24.687Z,11.80
2019-02-14T14:15:28.072Z,11.80
2019-02-14T14:20:31.467Z,11.80
2019-02-14T14:25:34.867Z,11.70
2019-02-14T14:30:38.273Z,11.60
2019-02-14T14:35:52.135Z,11.60
2019-02-14T14:40:46.759Z,11.60
2019-02-14T14:45:51.793Z,11.60
2019-02-14T14:50:55.187Z,11.50
2019-02-14T14:55:58.571Z,11.50
2019-02-14T15:01:01.956Z,11.40
2019-02-14T15:06:05.340Z,11.30
2019-02-14T15:11:08.775Z,11.20
2019-02-14T16:52:20.323Z,8.20
2019-02-14T16:57:23.712Z,8.00
2019-02-14T17:02:27.121Z,7.90
2019-02-14T17:07:30.512Z,7.70
2019-02-14T17:12:33.904Z,7.50
2019-02-14T17:17:37.293Z,7.30
2019-02-14T17:22:40.775Z,7.20
2019-02-14T17:27:44.182Z,7.00
2019-02-14T17:32:47.570Z,6.80
2019-02-14T17:37:50.951Z,6.70
2019-02-14T17:42:54.340Z,6.50
2019-02-14T17:47:57.723Z,6.40
2019-02-14T17:53:01.107Z,6.20
2019-02-14T17:58:04.508Z,6.10
2019-02-14T18:03:07.895Z,5.90
2019-02-14T18:08:11.273Z,5.80
2019-02-14T18:13:15.046Z,5.60
2019-02-14T18:18:18.519Z,5.50
2019-02-14T18:23:21.921Z,5.40
2019-02-14T18:28:25.467Z,5.30
2019-02-14T18:33:28.848Z,5.10
2019-02-14T18:38:32.251Z,5.00
2019-02-14T18:43:35.647Z,4.90
2019-02-14T18:48:39.061Z,4.70
2019-02-14T18:53:42.439Z,4.60
2019-02-14T18:58:45.827Z,4.50
2019-02-14T19:03:49.219Z,4.40
2019-02-14T19:08:52.605Z,4.30
2019-02-14T19:13:55.995Z,4.20
2019-02-14T19:18:59.378Z,4.10
2019-02-14T19:24:02.756Z,4.00
2019-02-14T19:29:06.139Z,3.90
2019-02-14T19:34:09.535Z,3.70
2019-02-14T19:39:12.907Z,3.70
2019-02-14T19:44:16.293Z,3.60
2019-02-14T19:49:19.662Z,3.50
2019-02-14T19:54:23.055Z,3.40
2019-02-14T19:59:26.437Z,3.30
2019-02-14T20:04:29.815Z,3.20
2019-02-14T20:09:33.251Z,3.10
2019-02-14T20:14:36.634Z,3.00
2019-02-14T20:19:40.135Z,2.90
2019-02-14T20:24:43.503Z,2.80
2019-02-14T20:29:46.915Z,2.70
2019-02-14T20:34:50.302Z,2.60
2019-02-14T20:39:53.680Z,2.50
2019-02-14T20:44:57.118Z,2.50
2019-02-14T20:50:00.548Z,2.40
2019-02-14T20:55:05.400Z,2.30
2019-02-14T21:00:12.475Z,2.20
2019-02-14T21:05:15.923Z,2.10
2019-02-14T21:10:19.375Z,2.10
2019-02-14T21:15:22.987Z,2.00
2019-02-14T21:20:26.509Z,1.90
2019-02-14T21:25:29.907Z,1.90
2019-02-14T21:30:35.364Z,1.80
2019-02-14T21:35:38.415Z,1.70
2019-02-14T21:40:41.968Z,1.70
2019-02-14T21:45:45.358Z,1.60
2019-02-14T21:50:48.756Z,1.50
2019-02-14T21:55:52.170Z,1.50
2019-02-14T22:00:55.601Z,1.40
2019-02-14T22:05:58.992Z,1.40
2019-02-14T22:11:02.766Z,1.30
2019-02-14T22:16:06.142Z,1.30
2019-02-14T22:21:09.537Z,1.20
2019-02-14T22:26:12.925Z,1.20
2019-02-14T22:31:16.319Z,1.10
2019-02-14T22:36:19.715Z,1.00
2019-02-14T22:41:23.107Z,1.00
2019-02-14T22:46:26.501Z,0.90
2019-02-14T22:51:29.883Z,0.90
2019-02-14T22:56:33.281Z,0.80
2019-02-14T23:01:36.650Z,0.80
2019-02-14T23:06:40.031Z,0.70
2019-02-14T23:11:43.433Z,0.70
2019-02-14T23:16:46.819Z,0.60
2019-02-14T23:21:50.230Z,0.60
2019-02-14T23:26:53.671Z,0.50
2019-02-14T23:31:57.079Z,0.50
2019-02-14T23:37:00.463Z,0.40
2019-02-14T23:42:03.848Z,0.40
2019-02-14T23:47:07.233Z,0.30
2019-02-14T23:52:10.624Z,0.30
2019-02-14T23:57:14.032Z,0.30
